»·PEaware :: WAT590 KSLC-KDEN

WAT590 :: KSLC-KDEN

FLIGHT INFORMATION

Flight Status: Arrived
Operator:
Walker Air Transport
More flights by this operator :: More flights under this callsign
Pilot: Anonymous 10623 (10623)
Aircraft: AIRBUS A300ST Super Transporter
(A3ST)
More flights by this aircraft type
Origin: KSLC Salt Lake City Intl
United States
Destination: KDEN Denver Intl
United States
More flights between these airports :: More routes between these airports
Route: RUGGD1 PERTY KAMPR LONGZ1
File this flight plan on PilotEdge
Remarks:
Altitude:
(Current/Filed)
31,000ft
Speed:
(Current/Filed)
398kts
Departed: 06-Mar-21 04:19 PM
Arrived: 06-Mar-21 05:28 PM
Distance/Time
Traveled:
339nm/1:08
Distance/Time
To Go:
Arrived

Flight Plot

Page will automatically refresh every two minutes.

Flight plan parsing failed; only flown route is shown


Map Options




Map Legend


Flown Route
Filed Route
Departure Airport
Arrival Airport
Navaid (VOR, NDB)
Fix

Horizontal Profiles

Position Reports

Time Latitude Longitude Heading Altitude Ground
Speed
06-Mar-21 15:51 40.805355 -111.982508 174 4244ft 0kts
06-Mar-21 15:52 40.805355 -111.982508 174 4244ft 0kts
06-Mar-21 15:53 40.805355 -111.982508 174 4244ft 0kts
06-Mar-21 15:54 40.805355 -111.982508 174 4244ft 0kts
06-Mar-21 15:55 40.805355 -111.982508 174 4244ft 0kts
06-Mar-21 15:56 40.805355 -111.982508 174 4244ft 0kts
06-Mar-21 15:57 40.805355 -111.982508 174 4244ft 0kts
06-Mar-21 15:58 40.805355 -111.982508 174 4244ft 0kts
06-Mar-21 15:59 40.805355 -111.982508 174 4244ft 0kts
06-Mar-21 16:00 40.805355 -111.982508 174 4244ft 0kts
06-Mar-21 16:01 40.805355 -111.982508 174 4244ft 0kts
06-Mar-21 16:02 40.805355 -111.982508 174 4244ft 0kts
06-Mar-21 16:03 40.805355 -111.982508 174 4244ft 0kts
06-Mar-21 16:04 40.805355 -111.982508 174 4244ft 0kts
06-Mar-21 16:05 40.805358 -111.982509 174 4244ft 0kts
06-Mar-21 16:06 40.805893 -111.982663 140 4244ft 2kts
06-Mar-21 16:07 40.806064 -111.983234 84 4244ft 0kts
06-Mar-21 16:08 40.806065 -111.983234 84 4244ft 0kts
06-Mar-21 16:09 40.806064 -111.983233 84 4244ft 0kts
06-Mar-21 16:10 40.806064 -111.983233 84 4244ft 0kts
06-Mar-21 16:11 40.806087 -111.982913 85 4244ft 7kts
06-Mar-21 16:12 40.806895 -111.980525 7 4244ft 6kts
06-Mar-21 16:13 40.807423 -111.978812 87 4244ft 3kts
06-Mar-21 16:14 40.807424 -111.978788 88 4244ft 0kts
06-Mar-21 16:15 40.807424 -111.978788 88 4244ft 0kts
06-Mar-21 16:16 40.807196 -111.977257 118 4244ft 4kts
06-Mar-21 16:17 40.806387 -111.976802 175 4244ft 14kts
06-Mar-21 16:18 40.776080 -111.971345 172 5514ft 199kts
06-Mar-21 16:19 40.737858 -112.008839 268 8714ft 261kts
06-Mar-21 16:20 40.798532 -112.078634 5 10159ft 314kts
06-Mar-21 16:21 40.898591 -112.052426 5 13094ft 370kts
06-Mar-21 16:22 41.001794 -112.027640 5 16490ft 389kts
06-Mar-21 16:23 41.079116 -111.937955 72 19422ft 404kts
06-Mar-21 16:24 41.121519 -111.802630 81 21669ft 419kts
06-Mar-21 16:25 41.081601 -111.677016 138 23373ft 390kts
06-Mar-21 16:26 41.012003 -111.566076 136 25524ft 398kts
06-Mar-21 16:27 40.949356 -111.464265 136 27494ft 397kts
06-Mar-21 16:28 40.900310 -111.353170 103 29302ft 415kts
06-Mar-21 16:29 40.888635 -111.220348 105 30688ft 414kts
06-Mar-21 16:30 40.872515 -111.086871 105 30888ft 409kts
06-Mar-21 16:31 40.852871 -110.922356 105 30974ft 408kts
06-Mar-21 16:32 40.835976 -110.783782 105 31013ft 407kts
06-Mar-21 16:33 40.817648 -110.635153 105 31021ft 406kts
06-Mar-21 16:34 40.798811 -110.483181 105 31022ft 406kts
06-Mar-21 16:35 40.783493 -110.361104 105 31025ft 405kts
06-Mar-21 16:36 40.767000 -110.230228 105 31007ft 405kts
06-Mar-21 16:37 40.748863 -110.088326 105 31017ft 405kts
06-Mar-21 16:38 40.735421 -109.935076 100 31013ft 405kts
06-Mar-21 16:39 40.725665 -109.787181 100 31015ft 405kts
06-Mar-21 16:40 40.715743 -109.641806 100 31017ft 405kts
06-Mar-21 16:42 40.705604 -109.495958 100 31020ft 405kts
06-Mar-21 16:43 40.695313 -109.350556 100 31022ft 404kts
06-Mar-21 16:44 40.685445 -109.213223 101 31014ft 404kts
06-Mar-21 16:45 40.674490 -109.063580 100 31032ft 404kts
06-Mar-21 16:46 40.664791 -108.921395 99 31040ft 404kts
06-Mar-21 16:47 40.655378 -108.774276 99 31032ft 404kts
06-Mar-21 16:48 40.645732 -108.626346 99 31044ft 403kts
06-Mar-21 16:49 40.636059 -108.481651 99 31081ft 403kts
06-Mar-21 16:50 40.626232 -108.339439 100 31088ft 403kts
06-Mar-21 16:51 40.616939 -108.205060 100 31083ft 402kts
06-Mar-21 16:52 40.606835 -108.061954 99 31076ft 402kts
06-Mar-21 16:53 40.596489 -107.917821 99 31077ft 403kts
06-Mar-21 16:54 40.585780 -107.771852 99 31091ft 422kts
06-Mar-21 16:55 40.574303 -107.623226 99 31077ft 423kts
06-Mar-21 16:56 40.562773 -107.471816 99 31080ft 424kts
06-Mar-21 16:57 40.551753 -107.327179 99 31092ft 423kts
06-Mar-21 16:58 40.540120 -107.177025 99 31092ft 423kts
06-Mar-21 16:59 40.528247 -107.026543 99 31077ft 423kts
06-Mar-21 17:00 40.516172 -106.876055 99 31074ft 423kts
06-Mar-21 17:01 40.503916 -106.725783 99 31076ft 424kts
06-Mar-21 17:02 40.491517 -106.576183 98 31077ft 424kts
06-Mar-21 17:03 40.479304 -106.441735 99 31045ft 423kts
06-Mar-21 17:03 40.469970 -106.337644 99 29497ft 413kts
06-Mar-21 17:04 40.459899 -106.225725 99 27743ft 401kts
06-Mar-21 17:06 40.444628 -106.055263 99 24906ft 386kts
06-Mar-21 17:06 40.434762 -105.942406 99 22958ft 377kts
06-Mar-21 17:07 40.414935 -105.801586 104 20551ft 359kts
06-Mar-21 17:08 40.393291 -105.665060 104 18987ft 342kts
06-Mar-21 17:09 40.373057 -105.538802 104 17550ft 340kts
06-Mar-21 17:10 40.354349 -105.422155 104 15980ft 326kts
06-Mar-21 17:11 40.337075 -105.305658 102 14929ft 328kts
06-Mar-21 17:12 40.321610 -105.190913 102 12961ft 311kts
06-Mar-21 17:13 40.307822 -105.089442 103 12994ft 273kts
06-Mar-21 17:14 40.294513 -104.992400 102 13009ft 271kts
06-Mar-21 17:15 40.281068 -104.895720 102 12764ft 271kts
06-Mar-21 17:16 40.268225 -104.802963 102 11202ft 260kts
06-Mar-21 17:17 40.254523 -104.711123 116 10993ft 255kts
06-Mar-21 17:18 40.198057 -104.671872 163 11004ft 244kts
06-Mar-21 17:19 40.136380 -104.657038 181 10805ft 214kts
06-Mar-21 17:20 40.080396 -104.657465 182 9815ft 199kts
06-Mar-21 17:21 40.029816 -104.658083 181 8763ft 194kts
06-Mar-21 17:22 39.978321 -104.658707 180 7715ft 171kts
06-Mar-21 17:23 39.937656 -104.659217 179 6870ft 138kts
06-Mar-21 17:24 39.902153 -104.659437 178 6252ft 142kts
06-Mar-21 17:25 39.873462 -104.659890 178 5701ft 144kts
06-Mar-21 17:26 39.846443 -104.660277 179 5407ft 53kts
06-Mar-21 17:27 39.840645 -104.661619 205 5421ft 0kts
06-Mar-21 17:28 39.840617 -104.661637 205 5421ft 1kts
06-Mar-21 17:29 39.838503 -104.662586 180 5428ft 9kts
06-Mar-21 17:30 39.834985 -104.662601 181 5434ft 13kts
06-Mar-21 17:31 39.831724 -104.663798 185 5437ft 8kts
06-Mar-21 17:32 39.828491 -104.664255 245 5437ft 14kts
06-Mar-21 17:33 39.828476 -104.669706 270 5415ft 18kts
06-Mar-21 17:34 39.828489 -104.674775 269 5407ft 18kts
06-Mar-21 17:35 39.829904 -104.677233 34 5404ft 14kts
06-Mar-21 17:36 39.830339 -104.674219 23 5404ft 5kts
06-Mar-21 17:37 39.830875 -104.674199 358 5404ft 0kts

Navigation Log

Ident Type
Flight plan parsing failed, navigation log unavailable